sensor_id;sensor_type;location;lat;lon;timestamp;pressure;altitude;pressure_sealevel;temperature;humidity
40650;BME280;26342;42.826;23.992;2023-09-19T00:00:26;95699.00;;;14.90;100.00
40650;BME280;26342;42.826;23.992;2023-09-19T00:02:54;95701.44;;;14.86;100.00
40650;BME280;26342;42.826;23.992;2023-09-19T00:05:20;95704.94;;;14.82;100.00
40650;BME280;26342;42.826;23.992;2023-09-19T00:07:50;95699.63;;;14.71;100.00
40650;BME280;26342;42.826;23.992;2023-09-19T00:10:16;95705.53;;;14.68;100.00
40650;BME280;26342;42.826;23.992;2023-09-19T00:12:45;95693.22;;;14.62;100.00
40650;BME280;26342;42.826;23.992;2023-09-19T00:15:11;95692.66;;;14.60;100.00
40650;BME280;26342;42.826;23.992;2023-09-19T00:17:37;95688.94;;;14.56;100.00
40650;BME280;26342;42.826;23.992;2023-09-19T00:20:04;95695.91;;;14.57;100.00
40650;BME280;26342;42.826;23.992;2023-09-19T00:22:41;95687.28;;;14.60;100.00
40650;BME280;26342;42.826;23.992;2023-09-19T00:25:08;95694.00;;;14.63;100.00
40650;BME280;26342;42.826;23.992;2023-09-19T00:27:35;95691.06;;;14.59;100.00
40650;BME280;26342;42.826;23.992;2023-09-19T00:30:09;95680.31;;;14.59;100.00
40650;BME280;26342;42.826;23.992;2023-09-19T00:32:42;95694.00;;;14.63;100.00
40650;BME280;26342;42.826;23.992;2023-09-19T00:35:08;95694.81;;;14.63;100.00
40650;BME280;26342;42.826;23.992;2023-09-19T00:37:35;95689.72;;;14.62;100.00
40650;BME280;26342;42.826;23.992;2023-09-19T00:40:03;95680.06;;;14.56;100.00
40650;BME280;26342;42.826;23.992;2023-09-19T00:42:31;95676.59;;;14.55;100.00
40650;BME280;26342;42.826;23.992;2023-09-19T00:44:57;95675.00;;;14.49;100.00
40650;BME280;26342;42.826;23.992;2023-09-19T00:47:22;95674.72;;;14.50;100.00
40650;BME280;26342;42.826;23.992;2023-09-19T00:49:48;95685.97;;;14.52;100.00
40650;BME280;26342;42.826;23.992;2023-09-19T00:52:18;95679.28;;;14.50;100.00
40650;BME280;26342;42.826;23.992;2023-09-19T00:54:48;95684.63;;;14.55;100.00
40650;BME280;26342;42.826;23.992;2023-09-19T00:57:14;95678.16;;;14.61;100.00
40650;BME280;26342;42.826;23.992;2023-09-19T00:59:41;95684.09;;;14.53;100.00
40650;BME280;26342;42.826;23.992;2023-09-19T01:02:08;95687.88;;;14.47;100.00
40650;BME280;26342;42.826;23.992;2023-09-19T01:04:33;95683.84;;;14.39;100.00
40650;BME280;26342;42.826;23.992;2023-09-19T01:06:59;95682.22;;;14.43;100.00
40650;BME280;26342;42.826;23.992;2023-09-19T01:09:25;95688.38;;;14.44;100.00
40650;BME280;26342;42.826;23.992;2023-09-19T01:11:53;95672.84;;;14.36;100.00
40650;BME280;26342;42.826;23.992;2023-09-19T01:14:34;95663.22;;;14.24;100.00
40650;BME280;26342;42.826;23.992;2023-09-19T01:17:09;95673.41;;;14.28;100.00
40650;BME280;26342;42.826;23.992;2023-09-19T01:19:48;95678.00;;;14.17;100.00
40650;BME280;26342;42.826;23.992;2023-09-19T01:22:28;95679.88;;;14.11;100.00
40650;BME280;26342;42.826;23.992;2023-09-19T01:30:51;95697.88;;;14.01;100.00
40650;BME280;26342;42.826;23.992;2023-09-19T01:33:19;95690.34;;;13.97;100.00
40650;BME280;26342;42.826;23.992;2023-09-19T01:35:45;95690.09;;;13.99;100.00
40650;BME280;26342;42.826;23.992;2023-09-19T01:38:11;95688.19;;;14.05;100.00
40650;BME280;26342;42.826;23.992;2023-09-19T01:41:03;95681.25;;;13.99;100.00
40650;BME280;26342;42.826;23.992;2023-09-19T01:43:36;95671.06;;;13.85;100.00
40650;BME280;26342;42.826;23.992;2023-09-19T01:46:24;95680.97;;;13.90;100.00
40650;BME280;26342;42.826;23.992;2023-09-19T01:52:05;95680.72;;;13.86;100.00
40650;BME280;26342;42.826;23.992;2023-09-19T01:54:41;95675.09;;;13.78;100.00
40650;BME280;26342;42.826;23.992;2023-09-19T02:00:04;95681.53;;;13.77;100.00
40650;BME280;26342;42.826;23.992;2023-09-19T02:02:37;95685.53;;;13.74;100.00
40650;BME280;26342;42.826;23.992;2023-09-19T02:05:04;95678.31;;;13.75;100.00
40650;BME280;26342;42.826;23.992;2023-09-19T02:07:30;95671.09;;;13.75;100.00
40650;BME280;26342;42.826;23.992;2023-09-19T02:09:59;95672.13;;;13.64;100.00
40650;BME280;26342;42.826;23.992;2023-09-19T02:12:31;95668.66;;;13.68;100.00
40650;BME280;26342;42.826;23.992;2023-09-19T02:14:58;95680.16;;;13.74;100.00
40650;BME280;26342;42.826;23.992;2023-09-19T02:17:24;95670.53;;;13.68;100.00
40650;BME280;26342;42.826;23.992;2023-09-19T02:19:54;95656.59;;;13.56;100.00
40650;BME280;26342;42.826;23.992;2023-09-19T02:22:21;95672.13;;;13.64;100.00
40650;BME280;26342;42.826;23.992;2023-09-19T02:24:48;95674.00;;;13.63;100.00
40650;BME280;26342;42.826;23.992;2023-09-19T02:27:14;95678.03;;;13.66;100.00
40650;BME280;26342;42.826;23.992;2023-09-19T02:29:42;95676.97;;;13.72;100.00
40650;BME280;26342;42.826;23.992;2023-09-19T02:32:07;95676.97;;;13.67;100.00
40650;BME280;26342;42.826;23.992;2023-09-19T02:34:35;95663.81;;;13.65;100.00
40650;BME280;26342;42.826;23.992;2023-09-19T02:37:05;95660.09;;;13.61;100.00
40650;BME280;26342;42.826;23.992;2023-09-19T02:39:33;95664.38;;;13.62;100.00
40650;BME280;26342;42.826;23.992;2023-09-19T02:41:59;95659.53;;;13.69;100.00
40650;BME280;26342;42.826;23.992;2023-09-19T02:44:25;95652.56;;;13.63;100.00
40650;BME280;26342;42.826;23.992;2023-09-19T02:46:52;95660.59;;;13.63;100.00
40650;BME280;26342;42.826;23.992;2023-09-19T02:49:18;95650.97;;;13.62;100.00
40650;BME280;26342;42.826;23.992;2023-09-19T02:51:44;95669.72;;;13.57;100.00
40650;BME280;26342;42.826;23.992;2023-09-19T02:54:10;95650.41;;;13.40;100.00
40650;BME280;26342;42.826;23.992;2023-09-19T02:56:36;95661.66;;;13.42;100.00
40650;BME280;26342;42.826;23.992;2023-09-19T02:59:02;95664.63;;;13.40;100.00
40650;BME280;26342;42.826;23.992;2023-09-19T03:01:28;95659.25;;;13.40;100.00
40650;BME280;26342;42.826;23.992;2023-09-19T03:03:54;95656.06;;;13.38;100.00
40650;BME280;26342;42.826;23.992;2023-09-19T03:06:20;95647.72;;;13.35;100.00
40650;BME280;26342;42.826;23.992;2023-09-19T03:08:47;95654.44;;;13.37;100.00
40650;BME280;26342;42.826;23.992;2023-09-19T03:11:14;95658.72;;;13.38;100.00
40650;BME280;26342;42.826;23.992;2023-09-19T03:13:41;95659.00;;;13.42;100.00
40650;BME280;26342;42.826;23.992;2023-09-19T03:16:08;95653.91;;;13.35;100.00
40650;BME280;26342;42.826;23.992;2023-09-19T03:18:34;95655.75;;;13.35;100.00
40650;BME280;26342;42.826;23.992;2023-09-19T03:21:00;95656.56;;;13.25;100.00
40650;BME280;26342;42.826;23.992;2023-09-19T03:23:27;95656.31;;;13.22;100.00
40650;BME280;26342;42.826;23.992;2023-09-19T03:25:54;95658.44;;;13.20;100.00
40650;BME280;26342;42.826;23.992;2023-09-19T03:28:20;95655.97;;;13.18;100.00
40650;BME280;26342;42.826;23.992;2023-09-19T03:31:02;95657.06;;;13.12;100.00
40650;BME280;26342;42.826;23.992;2023-09-19T03:33:28;95654.38;;;13.12;100.00
40650;BME280;26342;42.826;23.992;2023-09-19T03:35:56;95649.56;;;13.04;100.00
40650;BME280;26342;42.826;23.992;2023-09-19T03:38:25;95651.97;;;13.05;100.00
40650;BME280;26342;42.826;23.992;2023-09-19T03:40:51;95655.16;;;13.02;100.00
40650;BME280;26342;42.826;23.992;2023-09-19T03:43:17;95648.72;;;12.98;100.00
40650;BME280;26342;42.826;23.992;2023-09-19T03:45:43;95650.34;;;12.99;100.00
40650;BME280;26342;42.826;23.992;2023-09-19T03:48:09;95647.13;;;13.02;100.00
40650;BME280;26342;42.826;23.992;2023-09-19T03:50:35;95637.47;;;12.96;100.00
40650;BME280;26342;42.826;23.992;2023-09-19T03:53:01;95636.94;;;12.89;100.00
40650;BME280;26342;42.826;23.992;2023-09-19T03:55:28;95638.25;;;12.81;100.00
40650;BME280;26342;42.826;23.992;2023-09-19T03:57:56;95647.59;;;12.79;100.00
40650;BME280;26342;42.826;23.992;2023-09-19T04:00:22;95647.06;;;12.77;100.00
40650;BME280;26342;42.826;23.992;2023-09-19T04:02:49;95653.22;;;12.77;100.00
40650;BME280;26342;42.826;23.992;2023-09-19T04:05:17;95648.13;;;12.76;100.00
40650;BME280;26342;42.826;23.992;2023-09-19T04:07:43;95648.13;;;12.76;100.00
40650;BME280;26342;42.826;23.992;2023-09-19T04:10:09;95650.84;;;12.81;100.00
40650;BME280;26342;42.826;23.992;2023-09-19T04:12:37;95639.06;;;12.82;100.00
40650;BME280;26342;42.826;23.992;2023-09-19T04:15:04;95649.22;;;12.80;100.00
40650;BME280;26342;42.826;23.992;2023-09-19T04:17:31;95646.78;;;12.78;100.00
40650;BME280;26342;42.826;23.992;2023-09-19T04:19:59;95658.34;;;12.84;100.00
40650;BME280;26342;42.826;23.992;2023-09-19T04:22:25;95663.72;;;12.89;100.00
40650;BME280;26342;42.826;23.992;2023-09-19T04:24:51;95651.91;;;12.85;100.00
40650;BME280;26342;42.826;23.992;2023-09-19T04:27:16;95652.19;;;12.89;100.00
40650;BME280;26342;42.826;23.992;2023-09-19T04:29:44;95641.72;;;12.87;100.00
40650;BME280;26342;42.826;23.992;2023-09-19T04:32:10;95650.06;;;12.91;100.00
40650;BME280;26342;42.826;23.992;2023-09-19T04:34:35;95658.34;;;12.94;100.00
40650;BME280;26342;42.826;23.992;2023-09-19T04:37:01;95657.56;;;12.99;100.00
40650;BME280;26342;42.826;23.992;2023-09-19T04:39:27;95657.84;;;13.02;100.00
40650;BME280;26342;42.826;23.992;2023-09-19T04:41:53;95652.47;;;13.02;100.00
40650;BME280;26342;42.826;23.992;2023-09-19T04:44:20;95664.81;;;13.03;100.00
40650;BME280;26342;42.826;23.992;2023-09-19T04:46:46;95670.44;;;13.07;100.00
40650;BME280;26342;42.826;23.992;2023-09-19T04:49:12;95662.41;;;13.07;100.00
40650;BME280;26342;42.826;23.992;2023-09-19T04:51:38;95668.03;;;13.05;100.00
40650;BME280;26342;42.826;23.992;2023-09-19T04:54:05;95663.19;;;12.97;100.00
40650;BME280;26342;42.826;23.992;2023-09-19T04:56:30;95665.59;;;12.99;100.00
40650;BME280;26342;42.826;23.992;2023-09-19T04:58:58;95675.00;;;13.06;100.00
40650;BME280;26342;42.826;23.992;2023-09-19T05:01:24;95664.00;;;13.03;100.00
40650;BME280;26342;42.826;23.992;2023-09-19T05:03:49;95663.19;;;13.02;100.00
40650;BME280;26342;42.826;23.992;2023-09-19T05:06:21;95655.72;;;13.04;100.00
40650;BME280;26342;42.826;23.992;2023-09-19T05:08:50;95654.63;;;13.05;100.00
40650;BME280;26342;42.826;23.992;2023-09-19T05:11:19;95654.38;;;13.07;100.00
40650;BME280;26342;42.826;23.992;2023-09-19T05:13:48;95651.44;;;13.13;100.00
40650;BME280;26342;42.826;23.992;2023-09-19T05:16:16;95637.53;;;13.22;100.00
40650;BME280;26342;42.826;23.992;2023-09-19T05:18:42;95644.25;;;13.29;100.00
40650;BME280;26342;42.826;23.992;2023-09-19T05:21:07;95647.47;;;13.36;100.00
40650;BME280;26342;42.826;23.992;2023-09-19T05:23:33;95653.63;;;13.47;100.00
40650;BME280;26342;42.826;23.992;2023-09-19T05:25:58;95644.53;;;13.48;100.00
40650;BME280;26342;42.826;23.992;2023-09-19T05:28:26;95653.09;;;13.55;100.00
40650;BME280;26342;42.826;23.992;2023-09-19T05:30:52;95653.13;;;13.60;100.00
40650;BME280;26342;42.826;23.992;2023-09-19T05:33:19;95639.69;;;13.65;100.00
40650;BME280;26342;42.826;23.992;2023-09-19T05:35:45;95642.91;;;13.78;100.00
40650;BME280;26342;42.826;23.992;2023-09-19T05:38:13;95640.72;;;13.90;100.00
40650;BME280;26342;42.826;23.992;2023-09-19T05:40:39;95631.31;;;14.03;100.00
40650;BME280;26342;42.826;23.992;2023-09-19T05:43:10;95636.13;;;14.16;100.00
40650;BME280;26342;42.826;23.992;2023-09-19T05:45:36;95634.22;;;14.32;100.00
40650;BME280;26342;42.826;23.992;2023-09-19T05:50:35;95632.31;;;14.32;100.00
40650;BME280;26342;42.826;23.992;2023-09-19T05:53:01;95630.69;;;14.41;100.00
40650;BME280;26342;42.826;23.992;2023-09-19T05:55:27;95622.09;;;14.49;100.00
40650;BME280;26342;42.826;23.992;2023-09-19T05:57:54;95620.72;;;14.52;100.00
40650;BME280;26342;42.826;23.992;2023-09-19T06:00:20;95608.91;;;14.53;100.00
40650;BME280;26342;42.826;23.992;2023-09-19T06:02:52;95611.78;;;14.67;100.00
40650;BME280;26342;42.826;23.992;2023-09-19T06:05:18;95609.09;;;14.72;100.00
40650;BME280;26342;42.826;23.992;2023-09-19T06:07:43;95605.63;;;14.66;100.00
40650;BME280;26342;42.826;23.992;2023-09-19T06:10:09;95603.44;;;14.73;100.00
40650;BME280;26342;42.826;23.992;2023-09-19T06:12:39;95598.84;;;14.79;100.00
40650;BME280;26342;42.826;23.992;2023-09-19T06:15:05;95595.28;;;14.89;100.00
40650;BME280;26342;42.826;23.992;2023-09-19T06:17:34;95582.88;;;14.98;100.00
40650;BME280;26342;42.826;23.992;2023-09-19T06:20:07;95551.50;;;14.88;100.00
40650;BME280;26342;42.826;23.992;2023-09-19T06:22:39;95584.84;;;15.26;100.00
40650;BME280;26342;42.826;23.992;2023-09-19T06:25:07;95589.31;;;15.36;100.00
40650;BME280;26342;42.826;23.992;2023-09-19T06:27:32;95580.63;;;15.49;100.00
40650;BME280;26342;42.826;23.992;2023-09-19T06:29:58;95580.16;;;15.71;100.00
40650;BME280;26342;42.826;23.992;2023-09-19T06:32:29;95584.84;;;15.89;100.00
40650;BME280;26342;42.826;23.992;2023-09-19T06:34:55;95590.78;;;16.10;100.00
40650;BME280;26342;42.826;23.992;2023-09-19T06:37:21;95588.25;;;16.19;100.00
40650;BME280;26342;42.826;23.992;2023-09-19T06:39:47;95583.28;;;16.31;100.00
40650;BME280;26342;42.826;23.992;2023-09-19T06:42:16;95582.88;;;16.43;100.00
40650;BME280;26342;42.826;23.992;2023-09-19T06:44:43;95580.56;;;16.55;100.00
40650;BME280;26342;42.826;23.992;2023-09-19T06:47:08;95573.22;;;16.61;100.00
40650;BME280;26342;42.826;23.992;2023-09-19T06:49:35;95577.66;;;16.76;100.00
40650;BME280;26342;42.826;23.992;2023-09-19T06:52:00;95587.38;;;16.90;100.00
40650;BME280;26342;42.826;23.992;2023-09-19T06:54:26;95569.63;;;16.89;100.00
40650;BME280;26342;42.826;23.992;2023-09-19T06:56:57;95576.47;;;17.00;100.00
40650;BME280;26342;42.826;23.992;2023-09-19T06:59:24;95574.44;;;17.11;100.00
40650;BME280;26342;42.826;23.992;2023-09-19T07:01:49;95571.44;;;17.13;100.00
40650;BME280;26342;42.826;23.992;2023-09-19T07:04:16;95566.97;;;17.22;100.00
40650;BME280;26342;42.826;23.992;2023-09-19T07:06:49;95572.53;;;17.30;100.00
40650;BME280;26342;42.826;23.992;2023-09-19T07:09:18;95562.13;;;17.38;100.00
40650;BME280;26342;42.826;23.992;2023-09-19T07:11:47;95565.78;;;17.47;100.00
40650;BME280;26342;42.826;23.992;2023-09-19T07:14:16;95572.59;;;17.58;100.00
40650;BME280;26342;42.826;23.992;2023-09-19T07:16:41;95574.00;;;17.69;100.00
40650;BME280;26342;42.826;23.992;2023-09-19T07:19:10;95578.56;;;17.74;100.00
40650;BME280;26342;42.826;23.992;2023-09-19T07:21:36;95572.78;;;17.80;100.00
40650;BME280;26342;42.826;23.992;2023-09-19T07:24:04;95570.59;;;17.82;100.00
40650;BME280;26342;42.826;23.992;2023-09-19T07:26:30;95581.03;;;18.03;100.00
40650;BME280;26342;42.826;23.992;2023-09-19T07:28:56;95584.22;;;18.19;100.00
40650;BME280;26342;42.826;23.992;2023-09-19T07:31:23;95588.94;;;18.27;100.00
40650;BME280;26342;42.826;23.992;2023-09-19T07:33:50;95578.53;;;18.34;100.00
40650;BME280;26342;42.826;23.992;2023-09-19T07:36:17;95582.94;;;18.44;100.00
40650;BME280;26342;42.826;23.992;2023-09-19T07:38:42;95578.72;;;18.51;100.00
40650;BME280;26342;42.826;23.992;2023-09-19T07:41:09;95587.91;;;18.64;100.00
40650;BME280;26342;42.826;23.992;2023-09-19T07:43:37;95581.00;;;18.72;100.00
40650;BME280;26342;42.826;23.992;2023-09-19T07:46:07;95582.28;;;18.88;100.00
40650;BME280;26342;42.826;23.992;2023-09-19T07:48:35;95576.66;;;18.98;100.00
40650;BME280;26342;42.826;23.992;2023-09-19T07:51:05;95570.13;;;19.13;100.00
40650;BME280;26342;42.826;23.992;2023-09-19T07:53:33;95569.03;;;19.36;100.00
40650;BME280;26342;42.826;23.992;2023-09-19T07:56:06;95571.06;;;19.53;100.00
40650;BME280;26342;42.826;23.992;2023-09-19T07:58:33;95563.84;;;19.71;100.00
40650;BME280;26342;42.826;23.992;2023-09-19T08:01:09;95565.06;;;19.87;100.00
40650;BME280;26342;42.826;23.992;2023-09-19T08:03:36;95566.94;;;20.09;100.00
40650;BME280;26342;42.826;23.992;2023-09-19T08:06:06;95562.22;;;20.23;100.00
40650;BME280;26342;42.826;23.992;2023-09-19T08:08:33;95553.94;;;20.37;100.00
40650;BME280;26342;42.826;23.992;2023-09-19T08:11:05;95553.00;;;20.42;100.00
40650;BME280;26342;42.826;23.992;2023-09-19T08:13:46;95548.66;;;20.63;100.00
40650;BME280;26342;42.826;23.992;2023-09-19T08:16:16;95541.66;;;20.88;100.00
40650;BME280;26342;42.826;23.992;2023-09-19T08:18:47;95543.44;;;21.10;100.00
40650;BME280;26342;42.826;23.992;2023-09-19T08:21:12;95553.63;;;21.22;100.00
40650;BME280;26342;42.826;23.992;2023-09-19T08:23:39;95551.72;;;21.39;100.00
40650;BME280;26342;42.826;23.992;2023-09-19T08:26:06;95551.06;;;21.60;100.00
40650;BME280;26342;42.826;23.992;2023-09-19T08:28:33;95545.94;;;21.76;100.00
40650;BME280;26342;42.826;23.992;2023-09-19T08:31:06;95539.66;;;21.92;100.00
40650;BME280;26342;42.826;23.992;2023-09-19T08:33:36;95544.09;;;22.06;100.00
40650;BME280;26342;42.826;23.992;2023-09-19T08:36:03;95539.72;;;22.22;100.00
40650;BME280;26342;42.826;23.992;2023-09-19T08:38:31;95540.44;;;22.40;99.36
40650;BME280;26342;42.826;23.992;2023-09-19T08:40:59;95526.78;;;22.48;97.24
40650;BME280;26342;42.826;23.992;2023-09-19T08:43:25;95546.78;;;22.52;89.96
40650;BME280;26342;42.826;23.992;2023-09-19T08:46:14;95548.88;;;22.47;93.52
40650;BME280;26342;42.826;23.992;2023-09-19T08:48:46;95544.84;;;22.53;86.02
40650;BME280;26342;42.826;23.992;2023-09-19T08:51:27;95541.47;;;22.56;88.27
40650;BME280;26342;42.826;23.992;2023-09-19T08:54:05;95546.22;;;22.59;92.56
40650;BME280;26342;42.826;23.992;2023-09-19T08:56:33;95541.22;;;22.70;90.43
40650;BME280;26342;42.826;23.992;2023-09-19T08:59:06;95533.06;;;22.70;87.59
40650;BME280;26342;42.826;23.992;2023-09-19T09:01:35;95539.16;;;22.67;88.89
40650;BME280;26342;42.826;23.992;2023-09-19T09:04:02;95528.44;;;22.70;90.88
40650;BME280;26342;42.826;23.992;2023-09-19T09:06:28;95519.94;;;22.72;90.70
40650;BME280;26342;42.826;23.992;2023-09-19T09:08:54;95520.09;;;22.75;86.73
40650;BME280;26342;42.826;23.992;2023-09-19T09:11:20;95518.47;;;22.74;82.79
40650;BME280;26342;42.826;23.992;2023-09-19T09:13:47;95518.47;;;22.74;84.61
40650;BME280;26342;42.826;23.992;2023-09-19T09:16:14;95504.69;;;22.79;88.22
40650;BME280;26342;42.826;23.992;2023-09-19T09:18:42;95508.66;;;22.82;89.34
40650;BME280;26342;42.826;23.992;2023-09-19T09:21:09;95504.63;;;22.88;89.00
40650;BME280;26342;42.826;23.992;2023-09-19T09:23:35;95513.41;;;22.94;86.17
40650;BME280;26342;42.826;23.992;2023-09-19T09:26:01;95512.13;;;23.12;85.26
40650;BME280;26342;42.826;23.992;2023-09-19T09:28:32;95515.31;;;23.14;83.77
40650;BME280;26342;42.826;23.992;2023-09-19T09:30:59;95505.56;;;23.13;82.90
40650;BME280;26342;42.826;23.992;2023-09-19T09:33:25;95514.59;;;23.26;81.03
40650;BME280;26342;42.826;23.992;2023-09-19T09:35:58;95513.66;;;23.22;79.10
40650;BME280;26342;42.826;23.992;2023-09-19T09:38:27;95518.78;;;23.23;81.46
40650;BME280;26342;42.826;23.992;2023-09-19T09:40:55;95514.38;;;23.31;78.69
40650;BME280;26342;42.826;23.992;2023-09-19T09:43:47;95512.13;;;23.33;76.09
40650;BME280;26342;42.826;23.992;2023-09-19T09:46:21;95513.28;;;23.44;75.92
40650;BME280;26342;42.826;23.992;2023-09-19T09:48:57;95501.59;;;23.64;80.21
40650;BME280;26342;42.826;23.992;2023-09-19T09:51:51;95498.88;;;23.77;72.25
40650;BME280;26342;42.826;23.992;2023-09-19T09:54:25;95500.59;;;23.81;75.48
40650;BME280;26342;42.826;23.992;2023-09-19T10:02:20;95500.06;;;23.88;65.57
40650;BME280;26342;42.826;23.992;2023-09-19T10:04:58;95502.31;;;23.86;68.18
40650;BME280;26342;42.826;23.992;2023-09-19T10:07:47;95492.44;;;23.81;69.79
40650;BME280;26342;42.826;23.992;2023-09-19T10:10:48;95499.59;;;23.98;59.22
40650;BME280;26342;42.826;23.992;2023-09-19T10:13:30;95503.94;;;24.11;66.00
40650;BME280;26342;42.826;23.992;2023-09-19T10:15:58;95505.19;;;24.26;65.55
40650;BME280;26342;42.826;23.992;2023-09-19T10:18:26;95505.28;;;24.30;64.93
40650;BME280;26342;42.826;23.992;2023-09-19T10:20:53;95504.31;;;24.34;65.48
40650;BME280;26342;42.826;23.992;2023-09-19T10:23:21;95492.72;;;24.37;60.76
40650;BME280;26342;42.826;23.992;2023-09-19T10:25:51;95498.06;;;24.34;63.72
40650;BME280;26342;42.826;23.992;2023-09-19T10:28:18;95497.28;;;24.33;64.87
40650;BME280;26342;42.826;23.992;2023-09-19T10:30:56;95491.22;;;24.28;65.71
40650;BME280;26342;42.826;23.992;2023-09-19T10:33:24;95492.81;;;24.29;65.87
40650;BME280;26342;42.826;23.992;2023-09-19T10:35:56;95486.44;;;24.24;68.25
40650;BME280;26342;42.826;23.992;2023-09-19T10:38:27;95488.25;;;24.20;63.23
40650;BME280;26342;42.826;23.992;2023-09-19T10:40:57;95487.34;;;24.16;63.35
40650;BME280;26342;42.826;23.992;2023-09-19T10:43:29;95485.19;;;24.10;63.89
40650;BME280;26342;42.826;23.992;2023-09-19T10:45:58;95478.03;;;24.17;64.69
40650;BME280;26342;42.826;23.992;2023-09-19T10:48:25;95474.06;;;24.27;63.90
40650;BME280;26342;42.826;23.992;2023-09-19T10:50:57;95469.19;;;24.33;67.44
40650;BME280;26342;42.826;23.992;2023-09-19T10:53:48;95473.84;;;24.44;67.95
40650;BME280;26342;42.826;23.992;2023-09-19T10:56:19;95476.09;;;24.55;65.48
40650;BME280;26342;42.826;23.992;2023-09-19T10:58:47;95469.84;;;24.66;65.07
40650;BME280;26342;42.826;23.992;2023-09-19T11:01:14;95470.16;;;24.77;67.40
40650;BME280;26342;42.826;23.992;2023-09-19T11:03:41;95468.78;;;24.83;69.07
40650;BME280;26342;42.826;23.992;2023-09-19T11:06:12;95461.81;;;24.98;67.84
40650;BME280;26342;42.826;23.992;2023-09-19T11:09:01;95472.25;;;25.08;72.28
40650;BME280;26342;42.826;23.992;2023-09-19T11:11:51;95467.69;;;25.12;65.81
40650;BME280;26342;42.826;23.992;2023-09-19T11:22:23;95460.94;;;25.22;64.91
40650;BME280;26342;42.826;23.992;2023-09-19T11:24:51;95464.47;;;25.22;66.57
40650;BME280;26342;42.826;23.992;2023-09-19T11:27:17;95469.66;;;25.27;66.03
40650;BME280;26342;42.826;23.992;2023-09-19T11:29:43;95458.94;;;25.34;63.68
40650;BME280;26342;42.826;23.992;2023-09-19T11:32:09;95458.59;;;25.36;66.21
40650;BME280;26342;42.826;23.992;2023-09-19T11:34:45;95450.84;;;25.38;67.60
40650;BME280;26342;42.826;23.992;2023-09-19T11:40:06;95440.81;;;25.42;66.93
40650;BME280;26342;42.826;23.992;2023-09-19T11:42:46;95441.00;;;25.49;69.25
40650;BME280;26342;42.826;23.992;2023-09-19T11:48:18;95433.75;;;25.85;67.55
40650;BME280;26342;42.826;23.992;2023-09-19T11:50:45;95428.78;;;25.91;64.89
40650;BME280;26342;42.826;23.992;2023-09-19T11:53:13;95434.59;;;26.05;66.18
40650;BME280;26342;42.826;23.992;2023-09-19T11:55:39;95431.00;;;26.16;65.38
40650;BME280;26342;42.826;23.992;2023-09-19T11:58:08;95427.97;;;26.22;63.49
40650;BME280;26342;42.826;23.992;2023-09-19T12:00:35;95435.19;;;26.30;65.60
40650;BME280;26342;42.826;23.992;2023-09-19T12:03:08;95430.44;;;26.27;58.76
40650;BME280;26342;42.826;23.992;2023-09-19T12:05:37;95415.97;;;26.26;62.47
40650;BME280;26342;42.826;23.992;2023-09-19T12:08:04;95417.47;;;26.24;61.64
40650;BME280;26342;42.826;23.992;2023-09-19T12:10:32;95409.19;;;26.04;59.50
40650;BME280;26342;42.826;23.992;2023-09-19T12:12:58;95412.13;;;25.96;60.32
40650;BME280;26342;42.826;23.992;2023-09-19T12:15:28;95416.09;;;25.98;62.61
40650;BME280;26342;42.826;23.992;2023-09-19T12:17:59;95409.81;;;25.98;62.36
40650;BME280;26342;42.826;23.992;2023-09-19T12:20:40;95413.97;;;26.07;64.18
40650;BME280;26342;42.826;23.992;2023-09-19T12:23:13;95398.19;;;26.01;61.10
40650;BME280;26342;42.826;23.992;2023-09-19T12:25:43;95402.41;;;25.98;61.70
40650;BME280;26342;42.826;23.992;2023-09-19T12:28:13;95404.19;;;25.91;62.25
40650;BME280;26342;42.826;23.992;2023-09-19T12:30:39;95392.03;;;25.88;65.26
40650;BME280;26342;42.826;23.992;2023-09-19T12:33:26;95406.06;;;25.86;65.29
40650;BME280;26342;42.826;23.992;2023-09-19T12:35:52;95403.56;;;25.81;66.03
40650;BME280;26342;42.826;23.992;2023-09-19T12:38:26;95404.13;;;25.71;65.91
40650;BME280;26342;42.826;23.992;2023-09-19T12:40:58;95402.25;;;25.59;64.83
40650;BME280;26342;42.826;23.992;2023-09-19T12:43:25;95408.31;;;25.53;65.86
40650;BME280;26342;42.826;23.992;2023-09-19T12:45:52;95405.84;;;25.48;65.95
40650;BME280;26342;42.826;23.992;2023-09-19T12:48:23;95400.63;;;25.43;67.06
40650;BME280;26342;42.826;23.992;2023-09-19T12:51:07;95402.72;;;25.33;66.75
40650;BME280;26342;42.826;23.992;2023-09-19T12:53:35;95408.34;;;25.25;67.86
40650;BME280;26342;42.826;23.992;2023-09-19T12:56:06;95410.41;;;25.28;67.29
40650;BME280;26342;42.826;23.992;2023-09-19T12:58:32;95413.81;;;25.25;67.31
40650;BME280;26342;42.826;23.992;2023-09-19T13:00:59;95414.75;;;25.17;68.56
40650;BME280;26342;42.826;23.992;2023-09-19T13:03:26;95418.19;;;25.14;68.22
40650;BME280;26342;42.826;23.992;2023-09-19T13:05:54;95414.69;;;25.13;68.47
40650;BME280;26342;42.826;23.992;2023-09-19T13:08:28;95414.75;;;25.17;67.65
40650;BME280;26342;42.826;23.992;2023-09-19T13:13:44;95402.00;;;25.21;67.16
40650;BME280;26342;42.826;23.992;2023-09-19T13:16:14;95413.25;;;25.19;68.12
40650;BME280;26342;42.826;23.992;2023-09-19T13:18:44;95415.75;;;25.24;66.81
40650;BME280;26342;42.826;23.992;2023-09-19T13:21:12;95408.88;;;25.15;64.56
40650;BME280;26342;42.826;23.992;2023-09-19T13:23:55;95406.16;;;25.02;64.55
40650;BME280;26342;42.826;23.992;2023-09-19T13:26:27;95398.91;;;25.07;66.04
40650;BME280;26342;42.826;23.992;2023-09-19T13:28:54;95407.28;;;25.14;64.67